Star Epsilon — V7NZ7 — position and weather

sailwx.info

Track history (hours):
 
Tides and Currents Weather Stations Pressure Air Temp Water Temp Dewpoint Dewpoint Depression Visibility Wind Speed Wind Dir Waves Ship Positions

Star Epsilon

Last reported at 2014-Sep-26 03:25 UTC. Time now 2014-Oct-01 20:30 UTC.
Position N 36°05' W 005°24'.

Length 189 m; draft 6.6 m.

Type: Cargo ship. MMSI: 538003043.

Date/timePositionNaut miles runAvg speedWind from/ knotsBaromVisibWave heightAir tempDewpointWater temp
2014-Sep-26 03:25N 36°05' W 005°24'1 0.6
2014-Sep-26 02:33N 36°05' W 005°23'6 5.7
2014-Sep-26 01:32N 36°05' W 005°16'  
2014-Sep-23 06:33N 37°02' E 012°12'1313.1
2014-Sep-23 05:33N 36°58' E 012°27'1313.6
2014-Sep-23 04:34N 36°54' E 012°44'1413.7
2014-Sep-23 03:33N 36°50' E 012°60'1413.6
2014-Sep-23 02:33N 36°46' E 013°16'1313.2
2014-Sep-23 01:33N 36°42' E 013°32'1312.9
2014-Sep-23 00:33N 36°38' E 013°47'1612.6
2014-Sep-22 23:17N 36°32' E 014°06'1012.8
2014-Sep-22 22:31N 36°29' E 014°17'1212.4
2014-Sep-22 21:33N 36°26' E 014°32'1312.8
2014-Sep-22 20:32N 36°23' E 014°47'1312.9
2014-Sep-22 19:31N 36°19' E 015°03'3213.2
2014-Sep-22 17:05N 36°10' E 015°41'  
Track history (hours):
 
Tides and Currents Weather Stations Pressure Air Temp Water Temp Dewpoint Dewpoint Depression Visibility Wind Speed Wind Dir Waves Ship Positions

Star Epsilon

Last reported at 2014-Sep-26 03:25 UTC. Time now 2014-Oct-01 20:30 UTC.
Position N 36°05' W 005°24'.

Length 189 m; draft 6.6 m.

Type: Cargo ship. MMSI: 538003043.

Date/timePositionNaut miles runAvg speedWind from/ knotsBaromVisibWave heightAir tempDewpointWater temp
2014-Sep-26 03:25N 36°05' W 005°24'1 0.6
2014-Sep-26 02:33N 36°05' W 005°23'6 5.7
2014-Sep-26 01:32N 36°05' W 005°16'  
2014-Sep-23 06:33N 37°02' E 012°12'1313.1
2014-Sep-23 05:33N 36°58' E 012°27'1313.6
2014-Sep-23 04:34N 36°54' E 012°44'1413.7
2014-Sep-23 03:33N 36°50' E 012°60'1413.6
2014-Sep-23 02:33N 36°46' E 013°16'1313.2
2014-Sep-23 01:33N 36°42' E 013°32'1312.9
2014-Sep-23 00:33N 36°38' E 013°47'1612.6
2014-Sep-22 23:17N 36°32' E 014°06'1012.8
2014-Sep-22 22:31N 36°29' E 014°17'1212.4
2014-Sep-22 21:33N 36°26' E 014°32'1312.8
2014-Sep-22 20:32N 36°23' E 014°47'1312.9
2014-Sep-22 19:31N 36°19' E 015°03'3213.2
2014-Sep-22 17:05N 36°10' E 015°41'  

Dump ship's entire track history